Time;durP1;ratioP1;P1;durP2;ratioP2;P2;SDS_P1;SDS_P2;PMS_P1;PMS_P2;Temp;Humidity;BMP_temperature;BMP_pressure;BME280_temperature;BME280_humidity;BME280_pressure;Samples;Min_cycle;Max_cycle;Signal;HPM_P1;HPM_P2
2023/12/25 00:01:12;;;;;;;0.73;0.60;;;9.80;99.90;;;;;;5042890;28;20263;-29
2023/12/25 00:03:38;;;;;;;1.13;0.50;;;9.80;99.90;;;;;;5034322;28;20174;-29
2023/12/25 00:06:04;;;;;;;0.70;0.60;;;9.70;99.90;;;;;;5030696;28;20195;-29
2023/12/25 00:08:30;;;;;;;0.70;0.63;;;9.70;99.90;;;;;;5027673;28;20207;-28
2023/12/25 00:10:56;;;;;;;1.17;0.70;;;9.70;99.90;;;;;;5022258;28;20178;-29
2023/12/25 00:13:21;;;;;;;1.63;0.60;;;9.70;99.90;;;;;;5030929;28;20179;-28
2023/12/25 00:15:47;;;;;;;1.23;0.57;;;9.60;99.90;;;;;;5014613;28;20183;-28
2023/12/25 00:18:13;;;;;;;1.67;0.60;;;9.60;99.90;;;;;;5028544;28;20247;-29
2023/12/25 00:20:40;;;;;;;1.77;0.60;;;9.60;99.90;;;;;;5019892;28;20265;-28
2023/12/25 00:23:06;;;;;;;0.83;0.60;;;9.60;99.90;;;;;;5022014;28;20270;-29
2023/12/25 00:25:31;;;;;;;1.40;0.70;;;9.50;99.90;;;;;;5014059;28;20249;-28
2023/12/25 00:27:58;;;;;;;1.20;0.60;;;9.50;99.90;;;;;;5043732;28;20225;-29
2023/12/25 00:30:23;;;;;;;0.73;0.60;;;9.40;99.90;;;;;;5022777;28;20176;-28
2023/12/25 00:32:49;;;;;;;0.50;0.50;;;9.40;99.90;;;;;;5036815;28;20190;-28
2023/12/25 00:35:17;;;;;;;0.63;0.50;;;9.50;99.90;;;;;;5050148;28;20183;-28
2023/12/25 00:37:43;;;;;;;0.60;0.50;;;9.50;99.90;;;;;;5038560;28;20243;-28
2023/12/25 00:40:10;;;;;;;1.00;0.67;;;9.50;99.90;;;;;;5045765;28;20188;-29
2023/12/25 00:42:36;;;;;;;0.73;0.43;;;9.50;99.90;;;;;;5063420;28;20270;-28
2023/12/25 00:45:01;;;;;;;2.10;1.00;;;9.50;99.90;;;;;;5015003;28;20822;-28
2023/12/25 00:47:27;;;;;;;0.43;0.40;;;9.60;99.90;;;;;;5036591;28;20304;-28
2023/12/25 00:49:53;;;;;;;1.27;0.60;;;9.60;99.90;;;;;;5026173;28;20207;-28
2023/12/25 00:52:19;;;;;;;0.70;0.60;;;9.60;99.90;;;;;;5029834;28;20176;-28
2023/12/25 00:54:45;;;;;;;0.90;0.60;;;9.60;99.90;;;;;;5033650;28;20179;-28
2023/12/25 00:57:12;;;;;;;2.27;0.70;;;9.70;99.90;;;;;;5040940;28;20198;-28
2023/12/25 00:59:39;;;;;;;0.50;0.50;;;9.60;99.90;;;;;;5038609;28;20188;-27
2023/12/25 01:02:05;;;;;;;0.87;0.53;;;9.70;99.90;;;;;;5043657;28;20195;-28
2023/12/25 01:04:30;;;;;;;0.83;0.70;;;9.60;99.90;;;;;;5033234;28;20182;-28
2023/12/25 01:06:56;;;;;;;0.60;0.60;;;9.70;99.90;;;;;;5027836;28;20255;-28
2023/12/25 01:09:22;;;;;;;0.40;0.40;;;9.70;99.90;;;;;;5031363;28;20196;-28
2023/12/25 01:11:49;;;;;;;1.17;0.60;;;9.80;99.90;;;;;;5051126;28;20188;-29
2023/12/25 01:14:14;;;;;;;0.93;0.60;;;9.80;99.90;;;;;;5035679;28;20230;-28
2023/12/25 01:16:41;;;;;;;1.27;0.70;;;9.80;99.90;;;;;;5027958;28;20204;-28
2023/12/25 01:19:07;;;;;;;1.30;0.80;;;9.80;99.90;;;;;;5012016;28;20223;-28
2023/12/25 01:21:34;;;;;;;0.60;0.47;;;9.70;99.90;;;;;;5031010;28;20181;-29
2023/12/25 01:24:00;;;;;;;0.70;0.67;;;9.70;99.90;;;;;;5008578;28;20188;-32
2023/12/25 01:26:26;;;;;;;1.23;1.00;;;9.70;99.90;;;;;;5023424;28;20262;-28
2023/12/25 01:28:51;;;;;;;1.23;0.80;;;9.60;99.90;;;;;;5047787;28;20205;-28
2023/12/25 01:31:17;;;;;;;0.73;0.73;;;9.60;99.90;;;;;;5027259;28;20192;-28
2023/12/25 01:33:43;;;;;;;1.23;0.67;;;9.60;99.90;;;;;;5037913;28;20177;-28
2023/12/25 01:36:09;;;;;;;1.30;1.00;;;9.60;99.90;;;;;;5036935;28;20176;-29
2023/12/25 01:38:35;;;;;;;0.97;0.73;;;9.60;99.90;;;;;;5028100;28;20202;-29
2023/12/25 01:41:01;;;;;;;3.00;1.00;;;9.60;99.90;;;;;;5032813;28;20266;-29
2023/12/25 01:43:27;;;;;;;1.80;0.83;;;9.60;99.90;;;;;;5024765;28;20205;-28
2023/12/25 01:45:54;;;;;;;2.50;0.70;;;9.60;99.90;;;;;;5032146;28;20195;-28
2023/12/25 01:48:22;;;;;;;1.67;0.80;;;9.60;99.90;;;;;;5029900;28;20207;-28
2023/12/25 01:50:48;;;;;;;1.63;0.93;;;9.60;99.90;;;;;;5031637;28;20178;-28
2023/12/25 01:53:14;;;;;;;1.43;1.10;;;9.60;99.90;;;;;;5030941;28;20234;-28
2023/12/25 01:55:41;;;;;;;0.97;0.80;;;9.60;99.90;;;;;;5044407;28;20202;-28
2023/12/25 01:58:07;;;;;;;1.10;0.70;;;9.60;99.90;;;;;;5045511;28;20203;-27
2023/12/25 02:00:33;;;;;;;0.73;0.60;;;9.50;99.90;;;;;;5046274;28;20187;-28
2023/12/25 02:03:00;;;;;;;1.47;0.70;;;9.50;99.90;;;;;;5040784;28;20190;-28
2023/12/25 02:05:26;;;;;;;0.70;0.70;;;9.40;99.90;;;;;;5020758;28;20189;-29
2023/12/25 02:07:53;;;;;;;2.47;0.80;;;9.40;99.90;;;;;;5024489;28;20228;-28
2023/12/25 02:10:30;;;;;;;1.90;0.80;;;9.30;99.90;;;;;;5047669;28;20183;-28
2023/12/25 02:12:57;;;;;;;0.80;0.70;;;9.30;99.90;;;;;;5021611;28;20178;-28
2023/12/25 02:15:25;;;;;;;0.97;0.80;;;9.30;99.90;;;;;;5027043;28;20185;-28
2023/12/25 02:17:52;;;;;;;0.67;0.67;;;9.30;99.90;;;;;;5045102;28;20224;-29
2023/12/25 02:20:20;;;;;;;1.57;0.93;;;9.20;99.90;;;;;;5027142;28;20369;-28
2023/12/25 02:22:46;;;;;;;0.90;0.80;;;9.30;99.90;;;;;;5032937;28;20179;-28
2023/12/25 02:25:24;;;;;;;1.47;0.80;;;9.20;99.90;;;;;;5030398;28;20186;-28
2023/12/25 02:27:50;;;;;;;2.10;0.80;;;9.20;99.90;;;;;;5015369;28;20353;-28
2023/12/25 02:30:16;;;;;;;0.80;0.60;;;9.20;99.90;;;;;;5022382;28;20274;-29
2023/12/25 02:32:42;;;;;;;1.70;0.57;;;9.20;99.90;;;;;;5039842;28;20229;-28
2023/12/25 02:35:08;;;;;;;0.93;0.60;;;9.20;99.90;;;;;;5034892;28;20182;-28
2023/12/25 02:37:34;;;;;;;0.50;0.50;;;9.20;99.90;;;;;;5024743;28;20209;-28
2023/12/25 02:40:00;;;;;;;1.37;1.00;;;9.10;99.90;;;;;;5042288;28;20256;-29
2023/12/25 02:42:26;;;;;;;0.77;0.57;;;9.10;99.90;;;;;;5035405;28;20190;-29
2023/12/25 02:44:52;;;;;;;0.80;0.60;;;9.00;99.90;;;;;;5034846;28;20197;-29
2023/12/25 02:47:17;;;;;;;1.37;0.77;;;9.00;99.90;;;;;;5047709;28;20291;-28
2023/12/25 02:49:43;;;;;;;1.93;0.70;;;9.00;99.90;;;;;;5035120;28;20229;-28
2023/12/25 02:52:09;;;;;;;0.70;0.70;;;8.90;99.90;;;;;;5034229;28;20188;-29
2023/12/25 02:54:35;;;;;;;0.77;0.60;;;8.90;99.90;;;;;;5031824;28;20210;-28
2023/12/25 02:57:01;;;;;;;1.50;0.60;;;8.80;99.90;;;;;;5049700;28;20193;-30
2023/12/25 02:59:27;;;;;;;0.80;0.53;;;8.80;99.90;;;;;;5033127;28;20179;-29
2023/12/25 03:01:53;;;;;;;0.77;0.73;;;8.80;99.90;;;;;;5031624;28;20183;-28
2023/12/25 03:04:19;;;;;;;0.80;0.80;;;8.80;99.90;;;;;;5017158;28;20178;-29
2023/12/25 03:06:45;;;;;;;2.43;0.90;;;8.90;99.90;;;;;;5028840;28;20308;-30
2023/12/25 03:09:11;;;;;;;1.73;0.87;;;8.90;99.90;;;;;;5035026;28;20233;-30
2023/12/25 03:11:37;;;;;;;1.17;0.90;;;8.90;99.90;;;;;;5041620;28;20176;-30
2023/12/25 03:14:03;;;;;;;2.07;1.23;;;8.90;99.90;;;;;;5030929;28;20182;-30
2023/12/25 03:16:29;;;;;;;2.10;1.17;;;8.90;99.90;;;;;;5034982;28;20217;-30
2023/12/25 03:18:55;;;;;;;1.00;0.90;;;8.90;99.90;;;;;;5048034;28;20249;-29
2023/12/25 03:21:21;;;;;;;2.77;0.90;;;8.90;99.90;;;;;;5027093;28;20283;-30
2023/12/25 03:23:47;;;;;;;1.70;0.80;;;8.90;99.90;;;;;;5036401;28;20198;-30
2023/12/25 03:26:13;;;;;;;1.00;0.80;;;8.90;99.90;;;;;;5031387;28;20179;-30
2023/12/25 03:28:40;;;;;;;1.03;0.70;;;8.90;99.90;;;;;;5031277;28;20202;-30
2023/12/25 03:31:07;;;;;;;1.03;0.60;;;8.90;99.90;;;;;;5037868;28;20189;-29
2023/12/25 03:33:34;;;;;;;2.00;0.60;;;8.90;99.90;;;;;;5042278;28;20182;-29
2023/12/25 03:35:59;;;;;;;1.00;0.60;;;8.90;99.90;;;;;;5035091;28;20178;-30
2023/12/25 03:38:25;;;;;;;1.90;0.53;;;8.90;99.90;;;;;;5017569;28;20207;-30
2023/12/25 03:40:51;;;;;;;1.20;0.80;;;8.90;99.90;;;;;;5034550;28;20277;-29
2023/12/25 03:43:17;;;;;;;0.70;0.57;;;8.90;99.90;;;;;;5042693;28;20232;-29
2023/12/25 03:45:42;;;;;;;0.73;0.63;;;8.80;99.90;;;;;;5033959;28;20181;-30
2023/12/25 03:48:09;;;;;;;1.67;0.80;;;8.80;99.90;;;;;;5047431;28;20221;-29
2023/12/25 03:50:35;;;;;;;1.23;0.93;;;8.90;99.90;;;;;;5031742;28;20185;-28
2023/12/25 03:53:01;;;;;;;2.13;0.80;;;9.00;99.90;;;;;;5030251;28;20183;-30
2023/12/25 03:55:27;;;;;;;1.13;0.83;;;8.90;99.90;;;;;;5033984;28;20182;-29
2023/12/25 03:57:53;;;;;;;1.80;0.63;;;9.00;99.90;;;;;;5033317;28;20338;-29
2023/12/25 04:00:19;;;;;;;0.77;0.60;;;8.90;99.90;;;;;;5035738;28;20190;-29
2023/12/25 04:02:46;;;;;;;1.20;0.53;;;9.00;99.90;;;;;;5027978;28;20178;-29
2023/12/25 04:05:12;;;;;;;1.17;0.77;;;9.10;99.90;;;;;;5036322;28;20214;-29
2023/12/25 04:07:38;;;;;;;1.10;0.70;;;9.10;99.90;;;;;;5033699;28;20208;-29
2023/12/25 04:10:05;;;;;;;1.37;1.00;;;9.10;99.90;;;;;;5032855;28;20182;-29
2023/12/25 04:12:31;;;;;;;1.93;0.90;;;9.10;99.90;;;;;;5033419;28;20190;-29
2023/12/25 04:14:57;;;;;;;0.97;0.80;;;9.10;99.90;;;;;;5035389;28;20330;-29
2023/12/25 04:17:23;;;;;;;2.57;0.67;;;9.10;99.90;;;;;;5038734;28;20213;-29
2023/12/25 04:19:49;;;;;;;0.50;0.50;;;9.00;99.90;;;;;;5029915;28;20190;-29
2023/12/25 04:22:14;;;;;;;0.90;0.60;;;9.00;99.90;;;;;;5030667;28;20188;-29
2023/12/25 04:24:41;;;;;;;0.70;0.60;;;9.10;99.90;;;;;;5027182;28;20186;-29
2023/12/25 04:27:07;;;;;;;0.70;0.53;;;9.10;99.90;;;;;;5023788;28;20527;-30
2023/12/25 04:29:34;;;;;;;0.70;0.60;;;9.10;99.90;;;;;;5034577;28;20265;-29
2023/12/25 04:32:00;;;;;;;0.70;0.57;;;9.20;99.90;;;;;;5030090;28;20273;-29
2023/12/25 04:34:26;;;;;;;0.93;0.80;;;9.20;99.90;;;;;;5047185;28;20193;-29
2023/12/25 04:36:52;;;;;;;3.87;2.30;;;9.20;99.90;;;;;;5042157;28;20192;-30
2023/12/25 04:39:18;;;;;;;0.50;0.50;;;9.30;99.90;;;;;;5029076;28;20206;-30
2023/12/25 04:41:46;;;;;;;1.20;0.70;;;9.30;99.90;;;;;;5034317;28;20198;-30
2023/12/25 04:44:11;;;;;;;0.57;0.57;;;9.40;99.90;;;;;;5027944;28;20179;-30
2023/12/25 04:46:39;;;;;;;1.10;0.60;;;9.40;99.90;;;;;;5033762;28;20214;-30
2023/12/25 04:49:06;;;;;;;1.87;0.90;;;9.50;99.90;;;;;;5032511;28;20209;-30
2023/12/25 04:51:32;;;;;;;1.73;0.73;;;9.50;99.90;;;;;;5031575;28;20182;-30
2023/12/25 04:53:58;;;;;;;0.60;0.60;;;9.40;99.90;;;;;;5036237;28;20178;-29
2023/12/25 04:56:24;;;;;;;1.07;0.53;;;9.50;99.90;;;;;;5031414;28;20185;-29
2023/12/25 04:58:50;;;;;;;0.60;0.60;;;9.50;99.90;;;;;;5028956;28;20225;-29
2023/12/25 05:01:16;;;;;;;1.13;0.70;;;9.60;99.90;;;;;;5030283;28;20187;-29
2023/12/25 05:03:42;;;;;;;0.70;0.67;;;9.60;99.90;;;;;;5028810;28;20184;-29
2023/12/25 05:06:09;;;;;;;0.73;0.57;;;9.60;99.90;;;;;;5021010;28;20185;-30
2023/12/25 05:08:36;;;;;;;1.40;0.70;;;9.60;99.90;;;;;;5017064;28;20228;-30
2023/12/25 05:11:02;;;;;;;1.67;0.60;;;9.50;99.90;;;;;;5028891;28;20183;-30
2023/12/25 05:13:28;;;;;;;1.00;0.63;;;9.50;99.90;;;;;;5031354;28;20245;-29
2023/12/25 05:15:54;;;;;;;0.33;0.33;;;9.50;99.90;;;;;;5038890;28;20175;-29
2023/12/25 05:18:20;;;;;;;0.53;0.53;;;9.50;99.90;;;;;;5032567;28;20249;-28
2023/12/25 05:20:46;;;;;;;0.93;0.77;;;9.50;99.90;;;;;;5031348;28;20219;-28
2023/12/25 05:23:11;;;;;;;1.70;0.60;;;9.40;99.90;;;;;;5025619;28;20191;-28
2023/12/25 05:25:37;;;;;;;0.93;0.70;;;9.40;99.90;;;;;;5027804;28;20220;-28
2023/12/25 05:28:03;;;;;;;0.60;0.57;;;9.30;99.90;;;;;;5030558;28;20213;-27
2023/12/25 05:30:29;;;;;;;0.40;0.40;;;9.40;99.90;;;;;;5039742;28;20211;-28
2023/12/25 05:32:55;;;;;;;0.73;0.70;;;9.30;99.90;;;;;;5032691;28;20182;-28
2023/12/25 05:35:23;;;;;;;1.30;0.53;;;9.30;99.90;;;;;;5023732;28;20206;-28
2023/12/25 05:37:49;;;;;;;0.83;0.70;;;9.30;99.90;;;;;;5029255;28;20217;-28
2023/12/25 05:40:16;;;;;;;0.50;0.50;;;9.30;99.90;;;;;;5027596;28;20194;-30
2023/12/25 05:42:41;;;;;;;1.50;0.50;;;9.30;99.90;;;;;;5013558;28;20195;-28
2023/12/25 05:45:08;;;;;;;1.17;0.63;;;9.20;99.90;;;;;;5036781;28;20178;-28
2023/12/25 05:47:34;;;;;;;0.80;0.60;;;9.10;99.90;;;;;;5031006;28;20207;-28
2023/12/25 05:49:59;;;;;;;0.67;0.50;;;9.10;99.90;;;;;;5031111;28;20193;-28
2023/12/25 05:52:25;;;;;;;0.87;0.70;;;9.10;99.90;;;;;;5036159;28;20186;-28
2023/12/25 05:54:51;;;;;;;1.27;0.70;;;9.10;99.90;;;;;;5041763;28;20183;-28
2023/12/25 05:57:17;;;;;;;0.50;0.50;;;9.10;99.90;;;;;;5040848;28;20245;-28
2023/12/25 05:59:44;;;;;;;0.60;0.60;;;9.10;99.90;;;;;;5024940;28;20186;-28
2023/12/25 06:02:11;;;;;;;1.00;0.73;;;9.10;99.90;;;;;;5028900;28;20225;-28
2023/12/25 06:04:37;;;;;;;1.57;0.70;;;9.10;99.90;;;;;;5050880;28;20209;-28
2023/12/25 06:07:04;;;;;;;0.87;0.70;;;9.00;99.90;;;;;;5023212;28;20210;-28
2023/12/25 06:09:31;;;;;;;0.60;0.60;;;9.00;99.90;;;;;;5037382;28;20221;-28
2023/12/25 06:11:56;;;;;;;0.83;0.60;;;9.00;99.90;;;;;;5041126;28;20182;-27
2023/12/25 06:14:22;;;;;;;0.80;0.60;;;9.00;99.90;;;;;;5030084;28;20205;-29
2023/12/25 06:16:48;;;;;;;0.80;0.80;;;9.00;99.90;;;;;;5008376;28;20189;-28
2023/12/25 06:19:14;;;;;;;0.60;0.60;;;8.90;99.90;;;;;;4997837;28;20218;-28
2023/12/25 06:21:40;;;;;;;2.73;0.70;;;8.90;99.90;;;;;;5017294;28;20183;-28
2023/12/25 06:24:06;;;;;;;0.70;0.70;;;8.90;99.90;;;;;;5010575;28;20190;-27
2023/12/25 06:26:32;;;;;;;0.70;0.70;;;8.80;99.90;;;;;;5041144;28;20190;-28
2023/12/25 06:28:58;;;;;;;0.70;0.50;;;8.80;99.90;;;;;;5034423;28;20214;-29
2023/12/25 06:31:24;;;;;;;1.70;0.80;;;8.80;99.90;;;;;;5045544;28;20181;-28
2023/12/25 06:33:49;;;;;;;1.17;0.70;;;8.80;99.90;;;;;;5042942;28;20209;-28
2023/12/25 06:36:15;;;;;;;0.80;0.70;;;8.80;99.90;;;;;;5030545;28;20183;-28
2023/12/25 06:38:41;;;;;;;1.00;0.80;;;8.80;99.90;;;;;;5031094;28;20244;-28
2023/12/25 06:41:09;;;;;;;0.70;0.60;;;8.70;99.90;;;;;;5028109;28;20256;-28
2023/12/25 06:43:35;;;;;;;0.90;0.70;;;8.80;99.90;;;;;;5027498;28;20185;-28
2023/12/25 06:46:00;;;;;;;2.13;0.90;;;8.80;99.90;;;;;;5028092;28;20190;-28
2023/12/25 06:48:27;;;;;;;0.73;0.70;;;8.70;99.90;;;;;;5007516;28;20309;-28
2023/12/25 06:50:53;;;;;;;0.87;0.70;;;8.70;99.90;;;;;;5042732;28;20186;-27
2023/12/25 06:53:19;;;;;;;1.23;0.60;;;8.70;99.90;;;;;;5011199;28;20186;-28
2023/12/25 06:55:45;;;;;;;0.90;0.70;;;8.70;99.90;;;;;;5017976;28;20185;-28
2023/12/25 06:58:10;;;;;;;0.93;0.77;;;8.60;99.90;;;;;;5045374;28;20210;-28
2023/12/25 07:00:36;;;;;;;0.83;0.70;;;8.60;99.90;;;;;;5018353;28;20182;-28
2023/12/25 07:03:02;;;;;;;1.90;0.70;;;8.60;99.90;;;;;;5014261;28;20212;-28
2023/12/25 07:05:28;;;;;;;1.80;0.83;;;8.70;99.90;;;;;;5045840;28;20213;-28
2023/12/25 07:07:54;;;;;;;1.10;0.70;;;8.70;99.90;;;;;;5028785;28;20217;-28
2023/12/25 07:10:20;;;;;;;0.73;0.73;;;8.70;99.90;;;;;;5017779;28;20179;-28
2023/12/25 07:12:45;;;;;;;2.00;1.20;;;8.70;99.90;;;;;;5028633;28;20242;-28
2023/12/25 07:15:11;;;;;;;0.77;0.77;;;8.70;99.90;;;;;;5028724;28;20186;-28
2023/12/25 07:17:37;;;;;;;1.47;1.00;;;8.70;99.90;;;;;;5032913;28;20238;-28
2023/12/25 07:20:03;;;;;;;1.37;0.97;;;8.70;99.90;;;;;;5040787;28;20186;-28
2023/12/25 07:22:29;;;;;;;1.47;1.23;;;8.70;99.90;;;;;;5013987;28;20178;-28
2023/12/25 07:24:55;;;;;;;2.23;0.90;;;8.70;99.90;;;;;;5038496;28;20237;-28
2023/12/25 07:27:21;;;;;;;1.00;0.90;;;8.70;99.90;;;;;;5011210;28;20209;-28
2023/12/25 07:29:47;;;;;;;1.47;1.00;;;8.70;99.90;;;;;;5046744;28;20182;-27
2023/12/25 07:32:13;;;;;;;1.47;0.70;;;8.70;99.90;;;;;;5041080;28;20221;-28
2023/12/25 07:34:39;;;;;;;3.20;0.70;;;8.70;99.90;;;;;;5039703;28;20282;-27
2023/12/25 07:37:05;;;;;;;2.93;0.80;;;8.70;99.90;;;;;;5031583;28;20174;-27
2023/12/25 07:39:30;;;;;;;1.00;0.63;;;8.70;99.90;;;;;;5022487;28;20189;-28
2023/12/25 07:41:56;;;;;;;0.90;0.63;;;8.70;99.90;;;;;;5043133;28;20220;-28
2023/12/25 07:44:26;;;;;;;0.70;0.70;;;8.70;99.90;;;;;;5034340;28;20185;-28
2023/12/25 07:46:51;;;;;;;0.93;0.77;;;8.70;99.90;;;;;;5030654;28;20216;-28
2023/12/25 07:49:17;;;;;;;0.60;0.60;;;8.70;99.90;;;;;;5043800;28;20232;-28
2023/12/25 07:51:43;;;;;;;1.00;0.80;;;8.70;99.90;;;;;;5047612;28;20186;-28
2023/12/25 07:54:09;;;;;;;1.43;0.60;;;8.70;99.90;;;;;;5027403;28;20222;-28
2023/12/25 07:56:34;;;;;;;1.30;0.90;;;8.70;99.90;;;;;;5030158;28;20208;-28
2023/12/25 07:59:00;;;;;;;1.43;0.80;;;8.70;99.90;;;;;;5031902;28;20706;-28
2023/12/25 08:01:26;;;;;;;0.70;0.70;;;8.80;99.90;;;;;;5042978;28;20205;-28
2023/12/25 08:03:52;;;;;;;0.70;0.63;;;8.90;99.90;;;;;;5038185;28;20186;-28
2023/12/25 08:06:18;;;;;;;1.17;0.80;;;8.90;99.90;;;;;;5051526;28;20185;-28
2023/12/25 08:08:47;;;;;;;0.70;0.70;;;8.90;99.90;;;;;;5047253;28;20209;-29
2023/12/25 08:11:14;;;;;;;0.93;0.77;;;8.90;99.90;;;;;;5010467;28;20210;-28
2023/12/25 08:13:40;;;;;;;1.57;0.70;;;8.90;99.90;;;;;;5034127;28;20185;-28
2023/12/25 08:16:06;;;;;;;1.53;0.63;;;8.90;99.90;;;;;;5032342;28;20178;-28
2023/12/25 08:18:32;;;;;;;0.93;0.70;;;8.90;99.90;;;;;;5056580;28;20278;-28
2023/12/25 08:20:59;;;;;;;2.07;0.70;;;8.90;99.90;;;;;;5032499;28;20191;-27
2023/12/25 08:23:24;;;;;;;0.60;0.60;;;8.90;99.90;;;;;;5046815;28;20184;-28
2023/12/25 08:25:50;;;;;;;1.03;0.67;;;8.90;99.90;;;;;;5028003;28;20205;-30
2023/12/25 08:28:16;;;;;;;0.77;0.70;;;8.90;99.90;;;;;;5040107;28;20213;-28
2023/12/25 08:30:43;;;;;;;1.30;0.80;;;8.90;99.90;;;;;;5032372;28;20272;-29
2023/12/25 08:33:09;;;;;;;0.70;0.70;;;8.90;99.90;;;;;;5042257;28;20208;-27
2023/12/25 08:35:35;;;;;;;0.93;0.90;;;8.90;99.90;;;;;;5042262;28;20312;-28
2023/12/25 08:38:01;;;;;;;1.20;1.10;;;8.90;99.90;;;;;;5048083;28;20238;-28
2023/12/25 08:40:28;;;;;;;1.03;0.80;;;8.90;99.90;;;;;;5025012;28;20217;-27
2023/12/25 08:42:54;;;;;;;1.03;0.83;;;8.90;99.90;;;;;;5037043;28;20192;-28
2023/12/25 08:45:20;;;;;;;1.37;0.87;;;8.90;99.90;;;;;;5041259;28;20182;-28
2023/12/25 08:47:51;;;;;;;2.23;1.00;;;8.90;99.90;;;;;;5034464;28;20207;-28
2023/12/25 08:50:17;;;;;;;2.57;0.97;;;8.90;99.90;;;;;;5030965;28;20194;-27
2023/12/25 08:52:45;;;;;;;1.23;0.80;;;8.90;99.90;;;;;;5048995;28;20198;-28
2023/12/25 08:55:11;;;;;;;1.00;0.87;;;8.90;99.90;;;;;;5033385;28;20205;-29
2023/12/25 08:57:37;;;;;;;1.47;0.90;;;8.90;99.90;;;;;;5033435;28;20279;-28
2023/12/25 09:00:08;;;;;;;1.33;0.90;;;8.90;99.90;;;;;;5041778;28;20194;-27
2023/12/25 09:02:34;;;;;;;1.13;0.80;;;9.00;99.90;;;;;;5047545;28;20183;-28
2023/12/25 09:05:01;;;;;;;3.00;1.00;;;9.00;99.90;;;;;;5056266;28;20198;-27
2023/12/25 09:07:30;;;;;;;3.30;0.90;;;9.10;99.90;;;;;;5036580;28;20298;-28
2023/12/25 09:09:55;;;;;;;0.70;0.70;;;9.10;99.90;;;;;;5029165;28;20194;-28
2023/12/25 09:12:21;;;;;;;1.77;0.87;;;9.20;99.90;;;;;;5036067;28;20179;-28
2023/12/25 09:14:47;;;;;;;0.90;0.90;;;9.20;99.90;;;;;;5046209;28;20182;-27
2023/12/25 09:17:13;;;;;;;3.63;0.87;;;9.20;99.90;;;;;;5044402;28;20186;-28
2023/12/25 09:19:39;;;;;;;2.33;0.90;;;9.30;99.90;;;;;;5037491;28;20235;-28
2023/12/25 09:22:06;;;;;;;3.23;1.10;;;9.30;99.90;;;;;;5025927;28;20186;-30
2023/12/25 09:24:32;;;;;;;4.90;1.60;;;9.30;99.90;;;;;;5033646;28;20192;-28
2023/12/25 09:26:58;;;;;;;4.97;1.40;;;9.30;99.90;;;;;;5037946;28;20205;-28
2023/12/25 09:29:24;;;;;;;3.47;1.60;;;9.40;99.90;;;;;;5048587;28;20193;-28
2023/12/25 09:31:50;;;;;;;0.80;0.80;;;9.40;99.90;;;;;;5031762;28;20189;-28
2023/12/25 09:34:15;;;;;;;0.87;0.73;;;9.40;99.90;;;;;;5031960;28;20194;-28
2023/12/25 09:36:41;;;;;;;0.87;0.80;;;9.40;99.90;;;;;;5030949;28;20177;-28
2023/12/25 09:39:07;;;;;;;1.03;0.90;;;9.50;99.90;;;;;;5020832;28;20203;-28
2023/12/25 09:41:34;;;;;;;1.90;0.80;;;9.50;99.90;;;;;;5034958;28;20219;-28
2023/12/25 09:44:00;;;;;;;1.63;0.90;;;9.50;99.90;;;;;;5025695;28;20188;-28
2023/12/25 09:46:28;;;;;;;0.70;0.70;;;9.60;99.90;;;;;;5043375;28;20181;-28
2023/12/25 09:48:55;;;;;;;1.63;1.00;;;9.60;99.90;;;;;;5020508;28;20212;-28
2023/12/25 09:51:22;;;;;;;1.50;0.73;;;9.60;99.90;;;;;;5023687;28;20190;-28
2023/12/25 09:53:48;;;;;;;0.87;0.83;;;9.70;99.90;;;;;;5017411;28;20277;-29
2023/12/25 09:56:16;;;;;;;1.93;0.80;;;9.70;99.90;;;;;;5045057;28;20250;-30
2023/12/25 09:58:44;;;;;;;1.03;0.83;;;9.80;99.90;;;;;;5030777;28;20205;-30
2023/12/25 10:01:12;;;;;;;1.00;0.90;;;9.80;99.90;;;;;;5012554;28;20187;-30
2023/12/25 10:03:43;;;;;;;1.20;1.10;;;9.90;99.90;;;;;;5029080;28;20181;-30
2023/12/25 10:06:09;;;;;;;2.00;0.80;;;10.00;99.90;;;;;;5031262;28;20202;-30
2023/12/25 10:08:36;;;;;;;1.23;0.70;;;10.00;99.90;;;;;;5026797;28;20210;-29
2023/12/25 10:11:04;;;;;;;1.87;0.70;;;10.00;99.90;;;;;;5019962;28;20190;-30
2023/12/25 10:13:30;;;;;;;1.73;0.70;;;9.90;99.90;;;;;;5033379;28;20178;-29
2023/12/25 10:15:56;;;;;;;1.13;0.60;;;10.00;99.90;;;;;;5042267;28;20255;-30
2023/12/25 10:18:22;;;;;;;1.97;0.57;;;10.00;99.90;;;;;;5025421;28;20311;-29
2023/12/25 10:20:56;;;;;;;1.53;0.90;;;10.00;99.90;;;;;;5020981;28;20246;-30
2023/12/25 10:23:28;;;;;;;1.33;0.63;;;10.00;99.90;;;;;;5040431;28;20183;-29
2023/12/25 10:25:55;;;;;;;1.90;0.80;;;10.10;99.90;;;;;;5016339;28;20180;-29
2023/12/25 10:28:29;;;;;;;1.30;0.90;;;10.10;99.90;;;;;;5025325;28;20269;-30
2023/12/25 10:30:59;;;;;;;1.17;0.67;;;10.10;99.90;;;;;;5028378;28;20699;-30
2023/12/25 10:33:26;;;;;;;0.77;0.67;;;10.20;99.90;;;;;;5025530;28;20383;-29
2023/12/25 10:36:09;;;;;;;0.93;0.77;;;10.20;99.90;;;;;;5038092;28;20176;-30
2023/12/25 10:38:36;;;;;;;1.23;0.80;;;10.20;99.90;;;;;;5038368;28;20207;-30
2023/12/25 10:41:35;;;;;;;1.03;0.90;;;10.30;99.90;;;;;;5043145;28;20632;-30
2023/12/25 10:44:03;;;;;;;0.83;0.63;;;10.30;99.90;;;;;;5000377;28;20223;-30
2023/12/25 10:46:37;;;;;;;0.73;0.70;;;10.40;99.90;;;;;;5025677;28;20215;-29
2023/12/25 10:49:04;;;;;;;0.90;0.77;;;10.50;99.90;;;;;;5025447;28;20204;-29
2023/12/25 10:51:41;;;;;;;0.93;0.73;;;10.60;99.90;;;;;;5036627;28;20187;-30
2023/12/25 10:54:09;;;;;;;0.87;0.70;;;10.70;99.90;;;;;;5042085;28;20189;-30
2023/12/25 10:56:39;;;;;;;0.80;0.60;;;10.80;99.90;;;;;;5022571;28;20415;-30
2023/12/25 10:59:46;;;;;;;2.13;0.80;;;10.90;99.90;;;;;;5039939;28;20224;-30
2023/12/25 11:02:16;;;;;;;2.13;1.80;;;10.90;99.90;;;;;;5010498;28;20196;-30
2023/12/25 11:04:46;;;;;;;1.53;0.70;;;10.90;99.90;;;;;;5027565;28;20187;-29
2023/12/25 11:07:13;;;;;;;0.87;0.67;;;11.00;99.90;;;;;;5026022;28;20206;-30
2023/12/25 11:09:42;;;;;;;0.97;0.70;;;11.10;99.90;;;;;;5007124;28;20209;-29
2023/12/25 11:12:09;;;;;;;1.23;0.60;;;11.10;99.90;;;;;;5029054;28;20188;-30
2023/12/25 11:14:36;;;;;;;1.03;0.60;;;11.20;99.90;;;;;;5028321;28;20542;-30
2023/12/25 11:17:03;;;;;;;1.13;0.40;;;11.20;99.90;;;;;;5030490;28;20240;-29
2023/12/25 11:19:29;;;;;;;0.50;0.50;;;11.30;99.90;;;;;;5027546;28;20234;-30
2023/12/25 11:21:56;;;;;;;0.73;0.40;;;11.30;99.90;;;;;;5030941;28;20342;-30
2023/12/25 11:24:27;;;;;;;0.60;0.60;;;11.20;99.90;;;;;;5013832;28;20228;-30
2023/12/25 11:27:02;;;;;;;1.13;0.70;;;11.20;99.90;;;;;;5045315;28;20217;-30
2023/12/25 11:29:30;;;;;;;0.50;0.50;;;11.20;99.90;;;;;;5010583;28;20182;-29
2023/12/25 11:31:56;;;;;;;0.80;0.60;;;11.20;99.90;;;;;;5030225;28;20184;-29
2023/12/25 11:34:23;;;;;;;0.50;0.50;;;11.20;99.90;;;;;;5026064;28;20189;-30
2023/12/25 11:36:52;;;;;;;3.63;1.07;;;11.10;99.90;;;;;;5046871;28;20190;-29
2023/12/25 11:39:21;;;;;;;1.23;0.90;;;11.10;99.90;;;;;;5016880;28;20228;-29
2023/12/25 11:41:48;;;;;;;1.20;0.60;;;11.10;99.90;;;;;;5044905;28;20185;-30
2023/12/25 11:44:17;;;;;;;0.63;0.53;;;11.10;99.90;;;;;;5009076;28;20181;-30
2023/12/25 11:46:47;;;;;;;1.00;0.70;;;11.00;99.90;;;;;;5023936;28;20190;-29
2023/12/25 11:49:14;;;;;;;2.53;1.57;;;11.00;99.90;;;;;;5021271;28;20297;-30
2023/12/25 11:51:47;;;;;;;2.73;1.30;;;11.00;99.90;;;;;;5032486;28;20274;-30
2023/12/25 11:54:13;;;;;;;2.57;1.30;;;10.90;99.90;;;;;;5046990;28;20682;-30
2023/12/25 11:56:39;;;;;;;1.80;0.80;;;10.90;99.90;;;;;;5015177;28;20181;-30
2023/12/25 11:59:05;;;;;;;0.93;0.50;;;10.90;99.90;;;;;;5027138;28;20198;-30
2023/12/25 12:01:31;;;;;;;1.23;0.60;;;11.00;99.90;;;;;;5039599;28;20189;-30
2023/12/25 12:03:57;;;;;;;3.87;2.60;;;11.00;99.90;;;;;;5040070;28;20178;-30
2023/12/25 12:06:23;;;;;;;3.27;1.60;;;11.00;99.90;;;;;;5023540;28;20195;-30
2023/12/25 12:08:51;;;;;;;2.27;1.37;;;11.00;99.90;;;;;;5030260;28;20277;-30
2023/12/25 12:11:20;;;;;;;2.73;1.93;;;11.00;99.90;;;;;;5031033;28;20182;-30
2023/12/25 12:13:46;;;;;;;2.83;2.13;;;11.10;99.90;;;;;;5022027;28;20173;-30
2023/12/25 12:16:12;;;;;;;2.40;2.20;;;11.10;99.90;;;;;;5033767;28;20201;-30
2023/12/25 12:18:38;;;;;;;1.70;1.43;;;11.20;99.90;;;;;;5031450;28;20228;-30
2023/12/25 12:21:04;;;;;;;2.70;1.40;;;11.10;99.90;;;;;;5038400;28;20181;-30
2023/12/25 12:23:33;;;;;;;1.73;1.33;;;11.20;99.90;;;;;;5036768;28;20198;-30
2023/12/25 12:26:00;;;;;;;2.33;1.37;;;11.20;99.90;;;;;;5037469;28;20186;-30
2023/12/25 12:28:27;;;;;;;1.70;1.40;;;11.20;99.90;;;;;;5030699;28;20210;-30
2023/12/25 12:30:53;;;;;;;1.40;1.30;;;11.20;99.90;;;;;;5002237;28;20205;-30
2023/12/25 12:33:19;;;;;;;2.73;2.00;;;11.10;99.90;;;;;;5030745;28;20297;-30
2023/12/25 12:35:50;;;;;;;2.20;2.00;;;11.10;99.90;;;;;;5044822;28;20181;-30
2023/12/25 12:38:16;;;;;;;1.60;1.30;;;11.10;99.90;;;;;;5027577;28;20278;-30
2023/12/25 12:40:42;;;;;;;2.40;1.37;;;11.00;99.90;;;;;;5044119;28;20187;-30
2023/12/25 12:43:09;;;;;;;0.97;0.80;;;11.00;99.90;;;;;;5038261;28;20194;-30
2023/12/25 12:45:35;;;;;;;1.00;0.90;;;11.00;99.90;;;;;;5023893;28;20228;-30
2023/12/25 12:48:02;;;;;;;0.97;0.87;;;11.00;99.90;;;;;;5016606;28;20220;-30
2023/12/25 12:50:28;;;;;;;2.33;1.87;;;11.00;99.90;;;;;;5039279;28;20174;-30
2023/12/25 12:52:55;;;;;;;2.23;1.83;;;11.00;99.90;;;;;;5045214;28;20196;-30